createdAt,value
2023-03-23T16:01:32.233Z,0.73
2023-03-23T16:06:35.568Z,0.75
2023-03-23T16:11:38.007Z,0.90
2023-03-23T16:16:49.727Z,1.02
2023-03-23T16:21:52.938Z,1.08
2023-03-23T16:26:54.648Z,0.70
2023-03-23T16:31:56.348Z,0.80
2023-03-23T16:36:58.055Z,0.88
2023-03-23T16:41:59.883Z,0.98
2023-03-23T16:47:01.604Z,1.40
2023-03-23T16:52:03.403Z,1.15
2023-03-23T16:57:06.404Z,1.20
2023-03-23T17:02:11.267Z,1.08
2023-03-23T17:07:14.262Z,1.27
2023-03-23T17:12:16.176Z,2.50
2023-03-23T17:17:18.967Z,1.58
2023-03-23T17:22:21.071Z,1.42
2023-03-23T17:27:23.146Z,1.60
2023-03-23T17:32:25.274Z,1.60
2023-03-23T17:37:27.102Z,1.55
2023-03-23T17:42:29.736Z,1.52
2023-03-23T17:47:31.625Z,1.42
2023-03-23T17:52:33.667Z,1.30
2023-03-23T17:57:35.515Z,1.40
2023-03-23T18:02:37.628Z,1.83
2023-03-23T18:07:39.705Z,1.83
2023-03-23T18:12:41.853Z,1.60
2023-03-23T18:17:47.946Z,2.75
2023-03-23T18:22:50.187Z,2.20
2023-03-23T18:27:52.163Z,1.88
2023-03-23T18:32:54.174Z,1.77
2023-03-23T18:37:56.531Z,2.05
2023-03-23T18:42:58.630Z,2.42
2023-03-23T18:48:00.822Z,2.40
2023-03-23T18:53:02.689Z,2.40
2023-03-23T18:58:04.655Z,2.50
2023-03-23T19:03:07.274Z,2.60
2023-03-23T19:08:09.646Z,2.80
2023-03-23T19:13:11.623Z,2.53
2023-03-23T19:18:13.447Z,3.05
2023-03-23T19:23:15.650Z,2.03
2023-03-23T19:33:24.973Z,2.50
2023-03-23T19:38:26.827Z,2.30
2023-03-23T19:43:28.668Z,2.15
2023-03-23T19:48:31.129Z,2.75
2023-03-23T19:53:34.156Z,2.08
2023-03-23T19:58:36.498Z,2.20
2023-03-23T20:03:38.938Z,3.22
2023-03-23T20:08:43.753Z,3.60
2023-03-23T20:13:47.065Z,2.60
2023-03-23T20:18:50.365Z,2.30
2023-03-23T20:23:54.625Z,2.47
2023-03-23T20:28:56.697Z,2.70
2023-03-23T20:34:02.744Z,2.67
2023-03-23T20:39:08.311Z,2.58
2023-03-23T20:44:16.074Z,2.45
2023-03-23T20:49:19.679Z,1.98
2023-03-23T20:54:22.387Z,2.67
2023-03-23T20:59:25.278Z,2.60
2023-03-23T21:04:27.911Z,2.35
2023-03-23T21:09:30.832Z,2.65
2023-03-23T21:14:38.146Z,2.83
2023-03-23T21:19:39.972Z,3.10
2023-03-23T21:24:41.788Z,4.32
2023-03-23T21:29:44.784Z,3.25
2023-03-23T21:34:47.515Z,2.90
2023-03-23T21:39:49.679Z,3.60
2023-03-23T21:44:52.598Z,3.30
2023-03-23T21:49:56.739Z,3.47
2023-03-23T21:55:02.530Z,3.35
2023-03-23T22:00:07.211Z,3.63
2023-03-23T22:05:10.246Z,3.78
2023-03-23T22:10:12.699Z,3.20
2023-03-23T22:15:15.194Z,3.05
2023-03-23T22:20:17.407Z,3.08
2023-03-23T22:25:19.673Z,3.25
2023-03-23T22:30:21.528Z,3.22
2023-03-23T22:35:24.053Z,3.28
2023-03-23T22:40:25.766Z,2.80
2023-03-23T22:45:28.312Z,2.90
2023-03-23T22:50:30.359Z,2.80
2023-03-23T22:55:32.132Z,2.78
2023-03-23T23:00:34.136Z,2.80
2023-03-23T23:05:40.858Z,2.47
2023-03-23T23:10:45.795Z,2.00
2023-03-23T23:15:51.358Z,2.50
2023-03-23T23:20:56.374Z,2.20
2023-03-23T23:25:58.164Z,1.83
2023-03-23T23:30:59.975Z,2.22
2023-03-23T23:36:02.825Z,2.13
2023-03-23T23:41:05.976Z,2.15
2023-03-23T23:46:08.490Z,2.67
2023-03-23T23:51:14.358Z,2.05
2023-03-23T23:56:16.270Z,1.77
